Alvy, West Virginia
Current Conditions -  °F | °C
As of 7:53 AM on Friday 24 Oct 2014 (Local Time) from KCKB Reporting Station
Haze Haze  
Wind Chill: 39°   Ceiling: Unl
Heat Index: 39°   Visibility: 5mi
Dew Point: 38°   Wind: 3mph
Humidity: 96%   Direction: 150°SSE
Pressure: 30.12"   Gusts: NA
Location:  39.5266°N, 80.6428°W
Report Text: KCKB 241153Z 15003KT 5SM BR CLR 04/03 A3012 RMK AO2 SLP198 T00390033 10067 20033 51004
Loading
Personal Weather Stations






























Interactive Weather Map New forecast layout! Learn more

10-Day Weather Forecast

Advertisements
Track Severe Weather on mobile